Time;durP1;ratioP1;P1;durP2;ratioP2;P2;SDS_P1;SDS_P2;PMS_P1;PMS_P2;Temp;Humidity;BMP_temperature;BMP_pressure;BME280_temperature;BME280_humidity;BME280_pressure;Samples;Min_cycle;Max_cycle;Signal;HPM_P1;HPM_P2
2022/08/15 00:00:44;;;;;;;7.80;7.07;;;21.80;99.90;;;;;;5095102;28;20374;-82
2022/08/15 00:03:17;;;;;;;7.70;6.70;;;21.90;99.90;;;;;;5095004;28;20135;-83
2022/08/15 00:05:43;;;;;;;8.13;6.72;;;21.90;99.90;;;;;;5077235;28;20052;-82
2022/08/15 00:08:10;;;;;;;13.27;7.30;;;22.00;99.90;;;;;;5060260;28;20098;-82
2022/08/15 00:10:38;;;;;;;8.10;7.18;;;22.10;99.90;;;;;;5077197;28;20051;-82
2022/08/15 00:13:20;;;;;;;8.35;7.15;;;22.10;99.90;;;;;;5094849;28;20075;-82
2022/08/15 00:15:49;;;;;;;8.80;7.50;;;22.20;99.90;;;;;;5076840;28;20059;-81
2022/08/15 00:18:17;;;;;;;7.65;6.80;;;22.20;99.90;;;;;;5094667;28;20101;-83
2022/08/15 00:20:43;;;;;;;8.05;6.70;;;22.20;99.90;;;;;;5076480;28;20048;-83
2022/08/15 00:23:11;;;;;;;8.38;7.57;;;22.10;99.90;;;;;;5094314;28;20044;-82
2022/08/15 00:25:37;;;;;;;8.32;7.45;;;22.20;99.90;;;;;;5076906;28;20044;-82
2022/08/15 00:28:05;;;;;;;8.68;7.20;;;22.20;99.90;;;;;;5076731;28;20401;-82
2022/08/15 00:30:32;;;;;;;8.45;7.50;;;22.20;99.90;;;;;;5076660;28;20472;-82
2022/08/15 00:32:58;;;;;;;9.98;7.85;;;22.20;99.90;;;;;;5094565;28;20036;-81
2022/08/15 00:35:36;;;;;;;10.57;7.57;;;22.20;99.90;;;;;;5094254;28;20040;-82
2022/08/15 00:38:04;;;;;;;10.75;8.30;;;22.20;99.90;;;;;;5094402;28;20050;-81
2022/08/15 00:41:38;;;;;;;9.27;8.32;;;22.20;99.90;;;;;;5094543;28;20048;-82
2022/08/15 00:43:16;;;;;;;10.68;8.43;;;22.20;99.90;;;;;;5093802;28;20382;-82
2022/08/15 00:45:42;;;;;;;10.73;8.70;;;22.10;99.90;;;;;;5094089;28;20096;-81
2022/08/15 00:50:52;;;;;;;10.75;8.52;;;22.10;99.90;;;;;;5094131;28;20087;-81
2022/08/15 00:53:18;;;;;;;12.18;8.23;;;22.10;99.90;;;;;;5094098;28;20394;-82
2022/08/15 00:55:45;;;;;;;9.18;8.18;;;22.10;99.90;;;;;;5094171;28;20131;-81
2022/08/15 00:58:11;;;;;;;12.02;8.82;;;22.10;99.90;;;;;;5093864;28;20040;-84
2022/08/15 01:00:41;;;;;;;11.55;8.15;;;22.20;99.90;;;;;;5076000;28;20040;-83
2022/08/15 01:03:15;;;;;;;9.48;7.75;;;22.20;99.90;;;;;;5075640;28;20501;-82
2022/08/15 01:05:46;;;;;;;12.40;8.43;;;22.20;99.90;;;;;;5093846;28;20052;-81
2022/08/15 01:08:13;;;;;;;8.88;7.63;;;22.20;99.90;;;;;;5093777;28;20043;-82
2022/08/15 01:10:39;;;;;;;10.45;8.10;;;22.20;99.90;;;;;;5093890;28;20040;-82
2022/08/15 01:13:05;;;;;;;8.38;7.50;;;22.20;99.90;;;;;;5093738;28;20036;-81
2022/08/15 01:15:31;;;;;;;9.38;7.68;;;22.10;99.90;;;;;;5093436;28;20481;-82
2022/08/15 01:17:57;;;;;;;8.65;7.40;;;22.20;99.90;;;;;;5093731;28;20097;-82
2022/08/15 01:20:28;;;;;;;9.07;7.72;;;22.20;99.90;;;;;;5093919;28;20079;-82
2022/08/15 01:23:22;;;;;;;10.75;8.20;;;22.10;99.90;;;;;;5093531;28;20079;-81
2022/08/15 01:25:59;;;;;;;12.50;8.60;;;22.10;99.90;;;;;;5093530;28;20048;-82
2022/08/15 01:28:29;;;;;;;11.60;7.90;;;22.10;99.90;;;;;;5075444;28;20044;-84
2022/08/15 01:31:00;;;;;;;9.20;7.95;;;22.10;99.90;;;;;;5076093;28;20505;-82
2022/08/15 01:33:27;;;;;;;9.85;8.85;;;22.00;99.90;;;;;;5075466;28;20090;-82
2022/08/15 01:35:54;;;;;;;10.70;8.15;;;22.00;99.90;;;;;;5093552;28;20044;-81
2022/08/15 01:38:23;;;;;;;11.27;8.73;;;22.00;99.90;;;;;;5093346;28;20056;-82
2022/08/15 01:41:14;;;;;;;9.85;8.80;;;22.00;99.90;;;;;;5075230;28;20044;-81
2022/08/15 01:43:46;;;;;;;11.02;8.80;;;22.00;99.90;;;;;;5075143;28;20090;-81
2022/08/15 01:46:13;;;;;;;9.98;8.63;;;21.90;99.90;;;;;;5075876;28;20070;-81
2022/08/15 01:48:47;;;;;;;9.88;8.88;;;21.90;99.90;;;;;;5075496;28;20086;-82
2022/08/15 01:51:15;;;;;;;9.18;8.23;;;21.90;99.90;;;;;;5093042;28;20405;-82
2022/08/15 01:53:46;;;;;;;11.43;8.50;;;21.80;99.90;;;;;;5093376;28;20097;-81
2022/08/15 01:56:25;;;;;;;9.57;8.65;;;21.80;99.90;;;;;;5058566;28;20505;-81
2022/08/15 01:58:52;;;;;;;10.63;8.27;;;21.70;99.90;;;;;;5095443;28;20048;-82
2022/08/15 02:01:20;;;;;;;9.75;8.30;;;21.70;99.90;;;;;;5079481;28;20044;-82
2022/08/15 02:03:48;;;;;;;9.32;8.18;;;21.70;99.90;;;;;;5097171;28;20464;-82
2022/08/15 02:06:24;;;;;;;9.68;7.80;;;21.60;99.90;;;;;;5062863;28;20051;-82
2022/08/15 02:08:52;;;;;;;9.40;8.20;;;21.70;99.90;;;;;;5097458;28;20052;-82
2022/08/15 02:11:22;;;;;;;9.48;8.27;;;21.70;99.90;;;;;;5097207;28;20093;-81
2022/08/15 02:13:54;;;;;;;11.52;7.70;;;21.60;99.90;;;;;;5097130;28;20037;-82
2022/08/15 02:16:23;;;;;;;8.75;7.28;;;21.60;99.90;;;;;;5097518;28;20390;-82
2022/08/15 02:18:48;;;;;;;8.07;7.28;;;21.60;99.90;;;;;;5097118;28;20044;-82
2022/08/15 02:21:14;;;;;;;10.55;7.70;;;21.60;99.90;;;;;;5097296;28;20473;-81
2022/08/15 02:23:40;;;;;;;9.40;7.50;;;21.60;99.90;;;;;;5096839;28;20043;-82
2022/08/15 02:26:08;;;;;;;8.07;7.28;;;21.70;99.90;;;;;;5078427;28;20067;-82
2022/08/15 02:28:35;;;;;;;8.32;7.15;;;21.70;99.90;;;;;;5097000;28;20097;-81
2022/08/15 02:31:05;;;;;;;9.82;6.70;;;21.70;99.90;;;;;;5078797;28;20044;-82
2022/08/15 02:33:31;;;;;;;;;;;21.60;99.90;;;;;;5097375;28;20044;-81
2022/08/15 02:35:58;;;;;;;8.98;7.10;;;21.60;99.90;;;;;;5079022;28;19973;-82
2022/08/15 02:38:24;;;;;;;8.05;6.40;;;21.60;99.90;;;;;;5078973;28;20044;-81
2022/08/15 02:40:50;;;;;;;8.02;7.10;;;21.50;99.90;;;;;;5096837;28;20473;-82
2022/08/15 02:43:18;;;;;;;8.93;7.32;;;21.40;99.90;;;;;;5078248;28;20052;-81
2022/08/15 02:45:47;;;;;;;8.18;7.38;;;21.30;99.90;;;;;;5096457;28;20040;-82
2022/08/15 02:48:14;;;;;;;8.50;7.05;;;21.30;99.90;;;;;;5096485;28;20097;-81
2022/08/15 02:50:41;;;;;;;9.90;7.28;;;21.20;99.90;;;;;;5078633;28;20477;-82
2022/08/15 02:53:17;;;;;;;8.68;7.30;;;21.20;99.90;;;;;;5096503;28;20040;-81
2022/08/15 02:55:46;;;;;;;9.77;7.65;;;21.10;99.90;;;;;;5096357;28;20044;-81
2022/08/15 02:58:13;;;;;;;9.27;6.90;;;21.10;99.90;;;;;;5096057;28;20079;-82
2022/08/15 03:00:41;;;;;;;7.95;7.22;;;21.00;99.90;;;;;;5096026;28;20044;-81
2022/08/15 03:03:14;;;;;;;8.13;7.30;;;20.90;99.90;;;;;;5095880;28;20108;-82
2022/08/15 03:05:43;;;;;;;10.63;8.02;;;20.90;99.90;;;;;;5096074;28;20056;-82
2022/08/15 03:08:09;;;;;;;9.88;7.72;;;20.80;99.90;;;;;;5096116;28;20052;-81
2022/08/15 03:10:38;;;;;;;9.25;7.28;;;20.70;99.90;;;;;;5061753;28;20080;-81
2022/08/15 03:13:08;;;;;;;8.18;6.95;;;20.70;99.90;;;;;;5061305;28;20052;-82
2022/08/15 03:15:39;;;;;;;;;;;20.70;99.90;;;;;;5096474;28;20040;-81
2022/08/15 03:18:05;;;;;;;9.18;7.53;;;20.60;99.90;;;;;;5096035;28;19920;-82
2022/08/15 03:20:32;;;;;;;8.13;7.18;;;20.60;99.90;;;;;;5095790;28;20063;-81
2022/08/15 03:22:59;;;;;;;8.52;7.72;;;20.60;99.90;;;;;;5095543;28;20048;-82
2022/08/15 03:25:25;;;;;;;8.07;7.22;;;20.50;99.90;;;;;;5095664;28;20054;-82
2022/08/15 03:27:53;;;;;;;8.90;8.00;;;20.50;99.90;;;;;;5095176;28;20044;-82
2022/08/15 03:30:20;;;;;;;8.60;7.25;;;20.40;99.90;;;;;;5095812;28;20040;-81
2022/08/15 03:32:51;;;;;;;9.10;7.30;;;20.40;99.90;;;;;;5095764;28;20127;-81
2022/08/15 03:35:19;;;;;;;8.10;7.30;;;20.40;99.90;;;;;;5095451;28;20040;-82
2022/08/15 03:37:45;;;;;;;9.63;7.75;;;20.30;99.90;;;;;;5095894;28;20481;-81
2022/08/15 03:40:11;;;;;;;9.20;8.35;;;20.30;99.90;;;;;;5077633;28;20040;-82
2022/08/15 03:42:38;;;;;;;8.52;7.70;;;20.30;99.90;;;;;;5077137;28;20036;-82
2022/08/15 03:45:08;;;;;;;9.50;8.30;;;20.20;99.90;;;;;;5095492;28;20052;-81
2022/08/15 03:47:34;;;;;;;12.70;8.27;;;20.20;99.90;;;;;;5077714;28;20090;-82
2022/08/15 03:49:59;;;;;;;9.23;7.97;;;20.10;99.90;;;;;;5077506;28;20485;-82
2022/08/15 03:52:26;;;;;;;9.15;8.27;;;20.10;99.90;;;;;;5095370;28;20039;-82
2022/08/15 03:54:51;;;;;;;9.95;8.63;;;20.10;99.90;;;;;;5095232;28;20051;-81
2022/08/15 03:57:17;;;;;;;10.52;9.43;;;20.10;99.90;;;;;;5094903;28;20047;-81
2022/08/15 03:59:43;;;;;;;10.15;9.15;;;20.10;99.90;;;;;;5077259;28;20123;-82
2022/08/15 04:02:10;;;;;;;11.93;9.75;;;20.10;99.90;;;;;;5076944;28;20127;-81
2022/08/15 04:04:36;;;;;;;10.55;9.45;;;20.10;99.90;;;;;;5077139;28;20036;-81
2022/08/15 04:07:03;;;;;;;10.80;9.10;;;20.10;99.90;;;;;;5094944;28;20040;-82
2022/08/15 04:09:29;;;;;;;10.60;9.50;;;20.10;99.90;;;;;;5095349;28;20438;-82
2022/08/15 04:11:55;;;;;;;10.93;9.85;;;20.10;99.90;;;;;;5076695;28;20044;-81
2022/08/15 04:14:21;;;;;;;9.77;8.77;;;20.10;99.90;;;;;;5076692;28;20060;-82
2022/08/15 04:16:47;;;;;;;10.73;9.30;;;20.10;99.90;;;;;;5077074;28;20048;-84
2022/08/15 04:19:15;;;;;;;9.60;8.60;;;20.10;99.90;;;;;;5076967;28;20128;-81
2022/08/15 04:21:42;;;;;;;10.32;9.23;;;20.10;99.90;;;;;;5076595;28;20036;-81
2022/08/15 04:24:07;;;;;;;9.73;8.82;;;20.10;99.90;;;;;;5094734;28;20040;-81
2022/08/15 04:26:34;;;;;;;10.15;8.98;;;20.10;99.90;;;;;;5094184;28;20059;-86
2022/08/15 04:29:00;;;;;;;10.38;9.38;;;20.10;99.90;;;;;;5094599;28;20052;-82
2022/08/15 04:31:26;;;;;;;11.52;9.10;;;20.10;99.90;;;;;;5076623;28;20040;-81
2022/08/15 04:33:52;;;;;;;10.88;9.13;;;20.00;99.90;;;;;;5094513;28;20047;-81
2022/08/15 04:36:19;;;;;;;13.98;9.73;;;20.10;99.90;;;;;;5076380;28;20105;-81
2022/08/15 04:38:47;;;;;;;11.48;10.27;;;20.10;99.90;;;;;;5094314;28;20044;-81
2022/08/15 04:41:13;;;;;;;11.48;9.80;;;20.10;99.90;;;;;;5076380;28;20105;-81
2022/08/15 04:43:41;;;;;;;12.02;9.60;;;20.20;99.90;;;;;;5076192;28;20052;-81
2022/08/15 04:46:07;;;;;;;11.00;9.90;;;20.20;99.90;;;;;;5094344;28;20051;-81
2022/08/15 04:48:33;;;;;;;12.30;9.35;;;20.30;99.90;;;;;;5094563;28;20102;-81
2022/08/15 04:51:00;;;;;;;10.05;9.10;;;20.20;99.90;;;;;;5076163;28;20044;-82
2022/08/15 04:53:29;;;;;;;11.52;9.57;;;20.30;99.90;;;;;;5076147;28;20048;-81
2022/08/15 04:55:56;;;;;;;10.02;8.80;;;20.30;99.90;;;;;;5075658;28;20048;-81
2022/08/15 04:58:23;;;;;;;11.57;8.75;;;20.40;99.90;;;;;;5094071;28;20370;-81
2022/08/15 05:01:02;;;;;;;11.98;8.50;;;20.40;99.90;;;;;;5094173;28;20036;-81
2022/08/15 05:03:28;;;;;;;12.52;8.18;;;20.50;99.90;;;;;;5093577;28;20052;-81
2022/08/15 05:06:03;;;;;;;9.50;8.25;;;20.50;99.90;;;;;;5093844;28;20051;-81
2022/08/15 05:08:31;;;;;;;9.98;8.60;;;20.50;99.90;;;;;;5075843;28;20040;-83
2022/08/15 05:11:01;;;;;;;9.88;7.78;;;20.50;99.90;;;;;;5093883;28;20051;-82
2022/08/15 05:13:31;;;;;;;13.00;8.67;;;20.60;99.90;;;;;;5075698;28;20052;-81
2022/08/15 05:16:00;;;;;;;9.95;8.77;;;20.60;99.90;;;;;;5093914;28;20044;-81
2022/08/15 05:18:27;;;;;;;9.20;8.13;;;20.60;99.90;;;;;;5093593;28;20087;-81
2022/08/15 05:20:54;;;;;;;15.25;8.70;;;20.70;99.90;;;;;;5075698;28;20056;-81
2022/08/15 05:23:23;;;;;;;9.02;6.25;;;20.70;99.90;;;;;;5093361;28;20052;-82
2022/08/15 05:25:55;;;;;;;8.23;7.43;;;20.70;99.90;;;;;;5075923;28;20481;-81
2022/08/15 05:28:22;;;;;;;9.25;8.27;;;20.80;99.90;;;;;;5075393;28;20040;-81
2022/08/15 05:30:49;;;;;;;9.80;8.82;;;20.80;99.90;;;;;;5075735;28;20044;-81
2022/08/15 05:33:25;;;;;;;9.77;8.65;;;20.80;99.90;;;;;;5092475;28;20036;-82
2022/08/15 05:35:56;;;;;;;12.23;9.07;;;20.80;99.90;;;;;;5075404;28;20506;-82
2022/08/15 05:38:35;;;;;;;12.73;9.13;;;20.90;99.90;;;;;;5075895;28;20043;-82
2022/08/15 05:41:38;;;;;;;10.07;9.02;;;20.80;99.90;;;;;;5075276;28;20553;-84
2022/08/15 05:44:19;;;;;;;11.40;10.27;;;20.90;99.90;;;;;;5075532;28;20123;-81
2022/08/15 05:46:49;;;;;;;;;;;20.90;99.90;;;;;;5093868;28;20040;-82
2022/08/15 05:49:18;;;;;;;11.40;10.20;;;20.80;99.90;;;;;;5093465;28;20285;-81
2022/08/15 05:51:51;;;;;;;11.18;9.98;;;20.80;99.90;;;;;;5075593;28;20635;-82
2022/08/15 05:54:27;;;;;;;12.40;11.10;;;20.80;99.90;;;;;;5074668;28;20056;-83
2022/08/15 05:57:26;;;;;;;13.90;10.55;;;20.80;99.90;;;;;;5083937;28;20033;-83
2022/08/15 05:59:56;;;;;;;13.23;11.25;;;20.80;99.90;;;;;;5086480;28;20043;-82
2022/08/15 06:02:29;;;;;;;;;;;20.70;99.90;;;;;;5075274;28;20504;-82
2022/08/15 06:05:10;;;;;;;15.93;10.48;;;20.70;99.90;;;;;;5093159;28;19924;-84
2022/08/15 06:07:38;;;;;;;19.40;10.90;;;20.70;99.90;;;;;;5076950;28;20036;-82
2022/08/15 06:10:13;;;;;;;13.80;10.07;;;20.80;99.90;;;;;;5063833;28;20075;-81
2022/08/15 06:12:44;;;;;;;13.32;10.88;;;20.90;99.90;;;;;;5092797;28;20044;-82
2022/08/15 06:15:22;;;;;;;;;;;21.00;99.90;;;;;;5086496;28;20047;-82
2022/08/15 06:17:54;;;;;;;14.27;11.30;;;21.00;99.90;;;;;;5062381;28;20319;-86
2022/08/15 06:20:25;;;;;;;22.70;10.73;;;21.10;99.90;;;;;;5093198;28;20048;-82
2022/08/15 06:23:25;;;;;;;17.05;11.80;;;21.20;99.90;;;;;;5093183;28;20503;-83
2022/08/15 06:26:12;;;;;;;13.80;10.43;;;21.30;99.90;;;;;;5055347;28;20063;-83
2022/08/15 06:29:02;;;;;;;16.77;11.90;;;21.40;99.90;;;;;;5080286;28;20302;-83
2022/08/15 06:31:38;;;;;;;14.73;11.88;;;21.50;99.90;;;;;;5086348;28;20413;-83
2022/08/15 06:34:49;;;;;;;14.93;11.65;;;21.60;99.90;;;;;;5062084;28;20044;-85
2022/08/15 06:37:39;;;;;;;12.57;9.35;;;21.70;99.90;;;;;;5064428;28;20470;-84
2022/08/15 06:40:22;;;;;;;11.88;9.18;;;21.80;99.90;;;;;;5072677;28;20048;-83
2022/08/15 06:42:47;;;;;;;16.13;9.98;;;21.90;99.90;;;;;;5070230;28;20131;-84
2022/08/15 06:45:22;;;;;;;17.85;11.57;;;22.10;99.90;;;;;;5074718;28;20080;-83
2022/08/15 06:47:58;;;;;;;12.77;10.13;;;22.20;99.90;;;;;;5076495;28;20087;-83
2022/08/15 06:50:31;;;;;;;14.43;11.13;;;22.30;99.90;;;;;;5058530;28;20040;-82
2022/08/15 06:53:14;;;;;;;12.20;11.00;;;22.50;99.90;;;;;;5076365;28;20516;-82
2022/08/15 06:55:52;;;;;;;12.30;11.05;;;22.60;99.90;;;;;;5075855;28;20055;-83
2022/08/15 06:58:37;;;;;;;14.85;11.00;;;22.70;99.90;;;;;;5075792;28;20648;-82
2022/08/15 07:01:27;;;;;;;13.25;11.05;;;22.90;99.90;;;;;;5058305;28;20080;-84
2022/08/15 07:04:09;;;;;;;13.32;11.07;;;23.10;99.90;;;;;;5037941;28;20056;-82
2022/08/15 07:06:43;;;;;;;12.75;11.25;;;23.20;99.90;;;;;;5055753;28;20498;-83
2022/08/15 07:09:19;;;;;;;14.77;11.30;;;23.30;99.90;;;;;;5055895;28;20045;-82
2022/08/15 07:12:11;;;;;;;16.27;11.43;;;23.40;99.90;;;;;;5038204;28;20041;-82
2022/08/15 07:14:52;;;;;;;14.55;11.07;;;23.50;99.90;;;;;;5037703;28;20375;-83
2022/08/15 07:17:30;;;;;;;15.43;11.18;;;23.50;99.90;;;;;;5055713;28;20131;-83
2022/08/15 07:19:56;;;;;;;14.82;11.80;;;23.50;99.90;;;;;;5056096;28;20119;-82
2022/08/15 07:22:22;;;;;;;10.73;9.65;;;23.60;99.90;;;;;;5037935;28;20048;-82
2022/08/15 07:24:52;;;;;;;13.23;11.30;;;23.70;99.90;;;;;;5055776;28;20045;-82
2022/08/15 07:27:28;;;;;;;14.25;11.48;;;23.80;99.90;;;;;;5037461;28;20402;-82
2022/08/15 07:30:14;;;;;;;12.35;11.13;;;23.90;99.90;;;;;;5037875;28;20110;-82
2022/08/15 07:32:46;;;;;;;12.57;10.45;;;23.90;99.90;;;;;;5037799;28;20106;-82
2022/08/15 07:35:15;;;;;;;14.20;10.93;;;24.00;99.90;;;;;;5055494;28;20448;-82
2022/08/15 07:37:51;;;;;;;15.95;11.10;;;24.10;99.90;;;;;;5055554;28;20470;-82
2022/08/15 07:40:37;;;;;;;15.65;10.80;;;24.20;99.90;;;;;;5038053;28;20059;-82
2022/08/15 07:43:22;;;;;;;16.70;11.88;;;24.40;99.90;;;;;;5055151;28;20048;-83
2022/08/15 07:45:48;;;;;;;14.93;12.70;;;24.50;99.90;;;;;;5037515;28;20049;-82
2022/08/15 07:48:27;;;;;;;17.55;12.23;;;24.60;99.90;;;;;;5054909;28;20406;-82
2022/08/15 07:51:45;;;;;;;13.80;12.38;;;24.70;99.90;;;;;;5055134;28;20411;-81
2022/08/15 07:54:27;;;;;;;14.95;13.32;;;25.00;99.90;;;;;;5012946;28;20565;-82
2022/08/15 07:56:58;;;;;;;14.23;11.95;;;25.20;99.90;;;;;;5012356;28;20049;-83
2022/08/15 07:59:26;;;;;;;22.58;13.32;;;25.40;99.90;;;;;;5012683;28;20058;-83
2022/08/15 08:02:14;;;;;;;13.32;11.40;;;25.60;99.90;;;;;;5018484;28;20488;-84
2022/08/15 08:04:39;;;;;;;16.55;14.30;;;25.80;99.90;;;;;;5032853;28;20115;-83
2022/08/15 08:07:27;;;;;;;13.70;12.25;;;26.00;99.90;;;;;;5032445;28;20473;-83
2022/08/15 08:10:03;;;;;;;16.70;12.82;;;26.40;99.90;;;;;;5032622;28;20135;-82
2022/08/15 08:12:52;;;;;;;15.82;13.40;;;26.60;99.50;;;;;;4999902;28;20057;-82
2022/08/15 08:15:48;;;;;;;19.38;15.13;;;26.70;99.20;;;;;;5016252;28;20434;-82
2022/08/15 08:18:42;;;;;;;17.13;13.75;;;26.80;96.40;;;;;;5016119;28;20280;-82
2022/08/15 08:21:13;;;;;;;16.35;14.57;;;27.10;97.90;;;;;;5032242;28;20060;-83
2022/08/15 08:23:45;;;;;;;15.05;12.68;;;27.90;91.50;;;;;;5015664;28;20096;-83
2022/08/15 08:26:26;;;;;;;15.65;13.82;;;28.50;88.20;;;;;;5073891;28;20124;-83
2022/08/15 08:29:00;;;;;;;16.98;13.27;;;29.00;78.90;;;;;;5056657;28;20049;-82
2022/08/15 08:31:41;;;;;;;15.75;14.18;;;29.60;75.60;;;;;;5074033;28;20043;-83
2022/08/15 08:34:31;;;;;;;16.52;13.32;;;30.20;70.50;;;;;;5056387;28;20470;-83
2022/08/15 08:37:32;;;;;;;;;;;30.60;68.70;;;;;;5074621;28;20106;-85
2022/08/15 08:43:05;;;;;;;13.85;12.32;;;31.50;61.40;;;;;;4972891;28;20094;-83
2022/08/15 08:45:33;;;;;;;17.30;14.65;;;31.70;61.60;;;;;;4973349;28;20643;-83
2022/08/15 08:48:16;;;;;;;16.38;14.68;;;31.90;59.10;;;;;;4973134;28;20504;-83
2022/08/15 08:51:15;;;;;;;15.95;13.38;;;32.20;58.00;;;;;;4973141;28;20063;-82
2022/08/15 08:54:16;;;;;;;18.57;16.37;;;32.30;59.20;;;;;;4955795;28;20108;-83
2022/08/15 08:56:50;;;;;;;18.40;15.25;;;32.60;57.50;;;;;;4956753;28;20055;-82
2022/08/15 08:59:26;;;;;;;17.83;15.30;;;32.10;57.50;;;;;;4972871;28;20122;-83
2022/08/15 09:01:59;;;;;;;19.08;17.08;;;31.30;58.40;;;;;;4972713;28;20058;-84
2022/08/15 09:04:39;;;;;;;20.35;17.92;;;30.50;60.00;;;;;;4972830;28;20054;-82
2022/08/15 09:07:07;;;;;;;18.83;16.58;;;29.80;61.20;;;;;;4972829;28;20130;-83
2022/08/15 09:09:37;;;;;;;17.95;16.10;;;29.10;64.70;;;;;;4956799;28;20047;-83
2022/08/15 09:15:05;;;;;;;18.75;16.75;;;28.10;71.60;;;;;;5010126;28;20064;-83
2022/08/15 09:17:33;;;;;;;19.10;17.27;;;27.60;76.40;;;;;;5015238;28;20140;-82
2022/08/15 09:20:16;;;;;;;21.17;16.75;;;27.20;81.50;;;;;;5031407;28;20099;-82
2022/08/15 09:22:42;;;;;;;21.75;17.83;;;26.80;89.40;;;;;;5031071;28;20045;-83
2022/08/15 09:25:08;;;;;;;22.13;17.80;;;26.40;92.70;;;;;;5031263;28;20064;-82
2022/08/15 09:27:52;;;;;;;22.48;18.67;;;26.10;95.30;;;;;;4997831;28;20103;-82
2022/08/15 09:30:18;;;;;;;22.67;18.92;;;25.80;96.20;;;;;;5045754;28;20139;-83
2022/08/15 09:33:00;;;;;;;26.83;19.15;;;25.50;99.90;;;;;;5073276;28;20041;-83
2022/08/15 09:35:31;;;;;;;33.75;19.77;;;25.20;99.90;;;;;;5038665;28;20044;-84
2022/08/15 09:38:15;;;;;;;21.08;16.10;;;24.70;99.90;;;;;;5073323;28;20040;-86
2022/08/15 09:41:00;;;;;;;27.23;22.83;;;24.00;99.90;;;;;;5055517;28;20083;-86
2022/08/15 09:43:38;;;;;;;32.00;24.85;;;23.30;99.90;;;;;;5038264;28;20060;-85
2022/08/15 09:46:36;;;;;;;28.15;24.73;;;22.70;99.90;;;;;;5055597;28;20131;-88
2022/08/15 09:49:10;;;;;;;29.00;22.88;;;22.40;99.90;;;;;;5073162;28;20059;-86
2022/08/15 09:52:02;;;;;;;25.75;19.25;;;22.10;99.90;;;;;;5072987;28;20041;-86
2022/08/15 09:54:31;;;;;;;34.58;22.50;;;21.90;99.90;;;;;;5046964;28;20084;-87
2022/08/15 09:57:22;;;;;;;34.03;25.35;;;21.80;99.90;;;;;;5055227;28;20055;-86
2022/08/15 09:59:56;;;;;;;47.95;25.85;;;21.70;99.90;;;;;;5057584;28;20047;-86
2022/08/15 10:02:27;;;;;;;37.53;27.15;;;21.60;99.90;;;;;;5073151;28;20061;-88
2022/08/15 10:04:56;;;;;;;34.10;26.23;;;21.50;99.90;;;;;;5057038;28;20051;-91
2022/08/15 10:07:45;;;;;;;30.55;25.60;;;21.50;99.90;;;;;;5058521;28;20055;-90
2022/08/15 10:10:24;;;;;;;194.25;35.78;;;21.50;99.90;;;;;;5059008;28;20040;-92
2022/08/15 10:13:10;;;;;;;86.80;35.60;;;21.40;99.90;;;;;;5058558;28;20088;-89
2022/08/15 10:15:43;;;;;;;54.35;32.78;;;21.60;99.90;;;;;;5046223;28;20062;-90
2022/08/15 10:18:38;;;;;;;69.63;35.15;;;21.70;99.90;;;;;;5063872;28;20037;-91
2022/08/15 10:21:46;;;;;;;35.30;26.48;;;21.80;99.90;;;;;;5025978;28;20454;-93
2022/08/15 10:24:38;;;;;;;33.80;26.67;;;21.90;99.90;;;;;;5041200;23;20054;-91
2022/08/15 10:27:07;;;;;;;33.53;26.40;;;22.00;99.90;;;;;;4969581;28;20042;-91
2022/08/15 10:29:36;;;;;;;43.78;32.10;;;21.90;99.90;;;;;;4983414;28;20050;-91
2022/08/15 10:32:03;;;;;;;50.03;31.92;;;22.00;99.90;;;;;;5015794;28;20050;-92
2022/08/15 10:34:37;;;;;;;49.05;35.55;;;22.20;99.90;;;;;;5016193;28;20464;-92
2022/08/15 10:37:30;;;;;;;43.13;31.85;;;22.40;99.90;;;;;;4983503;28;20056;-89
2022/08/15 10:40:20;;;;;;;36.20;29.67;;;23.00;99.90;;;;;;4983465;28;20434;-90
2022/08/15 10:42:49;;;;;;;;;;;23.10;99.90;;;;;;4983390;28;20045;-91
2022/08/15 10:45:41;;;;;;;32.45;28.63;;;22.90;99.90;;;;;;4980961;28;20008;-83
2022/08/15 10:48:28;;;;;;;33.80;28.50;;;22.70;99.90;;;;;;4998345;28;20058;-86
2022/08/15 10:51:21;;;;;;;28.88;25.77;;;22.50;99.90;;;;;;4996784;28;20050;-86
2022/08/15 10:54:00;;;;;;;30.17;26.88;;;22.40;99.90;;;;;;4994279;28;20046;-87
2022/08/15 10:56:32;;;;;;;31.63;28.27;;;22.30;99.90;;;;;;4991838;28;20415;-86
2022/08/15 10:59:10;;;;;;;35.40;27.83;;;22.20;99.90;;;;;;4972781;28;20411;-85
2022/08/15 11:01:38;;;;;;;35.75;29.42;;;22.30;99.90;;;;;;4995006;28;20058;-84
2022/08/15 11:04:14;;;;;;;30.75;25.48;;;22.50;99.90;;;;;;4978191;28;20061;-87
2022/08/15 11:06:46;;;;;;;33.95;26.52;;;23.00;99.90;;;;;;4958683;28;20042;-91
2022/08/15 11:09:18;;;;;;;29.98;26.73;;;23.40;99.90;;;;;;4975492;28;20133;-85
2022/08/15 11:11:54;;;;;;;28.30;25.17;;;23.70;99.90;;;;;;4975676;28;20047;-88
2022/08/15 11:14:30;;;;;;;29.33;25.10;;;23.80;99.90;;;;;;4975700;28;20050;-86
2022/08/15 11:16:59;;;;;;;34.55;27.90;;;23.90;99.90;;;;;;4994021;28;20093;-86
2022/08/15 11:19:37;;;;;;;31.33;24.85;;;24.00;99.90;;;;;;4995615;28;20400;-85
2022/08/15 11:22:06;;;;;;;32.30;26.38;;;24.10;99.90;;;;;;4977746;28;20054;-85
2022/08/15 11:24:39;;;;;;;29.48;26.38;;;23.90;99.90;;;;;;4994504;28;20400;-83
2022/08/15 11:27:17;;;;;;;28.40;24.67;;;24.30;99.90;;;;;;5001788;28;20045;-82
2022/08/15 11:29:44;;;;;;;29.38;25.05;;;24.90;99.90;;;;;;4976830;28;20066;-84
2022/08/15 11:32:31;;;;;;;27.85;24.88;;;25.40;99.90;;;;;;4993356;28;20055;-86
2022/08/15 11:34:59;;;;;;;24.40;21.75;;;25.80;99.90;;;;;;4975550;28;20105;-85
2022/08/15 11:37:38;;;;;;;24.85;22.33;;;25.90;99.90;;;;;;4975127;28;20456;-85
2022/08/15 11:40:08;;;;;;;23.25;20.95;;;26.00;99.90;;;;;;4975136;28;20050;-84
2022/08/15 11:42:38;;;;;;;22.25;19.95;;;26.50;99.90;;;;;;4990021;28;20054;-83
2022/08/15 11:45:17;;;;;;;21.98;19.88;;;27.30;99.90;;;;;;4992668;28;20117;-84
2022/08/15 11:47:47;;;;;;;21.58;19.42;;;28.00;99.90;;;;;;4993850;28;20055;-84
2022/08/15 11:50:47;;;;;;;20.63;18.50;;;28.10;99.90;;;;;;4994464;28;20065;-84
2022/08/15 11:53:13;;;;;;;20.80;18.80;;;28.00;99.90;;;;;;4993105;28;20064;-86
2022/08/15 11:55:46;;;;;;;22.05;19.75;;;27.70;99.90;;;;;;4977148;28;20400;-85
2022/08/15 11:58:12;;;;;;;21.15;18.95;;;27.80;99.90;;;;;;4970756;28;20141;-87
2022/08/15 12:00:37;;;;;;;20.10;17.92;;;28.00;99.90;;;;;;4996212;28;20140;-86
2022/08/15 12:03:23;;;;;;;19.60;17.52;;;28.20;99.90;;;;;;4995987;28;20042;-84
2022/08/15 12:05:53;;;;;;;20.23;17.65;;;28.10;99.90;;;;;;5013638;28;20046;-87
2022/08/15 12:08:33;;;;;;;20.58;16.23;;;27.70;99.90;;;;;;5013879;28;20089;-86
2022/08/15 12:11:06;;;;;;;17.80;16.10;;;27.70;99.90;;;;;;5013388;28;20052;-85
2022/08/15 12:13:33;;;;;;;20.70;16.55;;;27.60;99.90;;;;;;5013835;28;20050;-86
2022/08/15 12:15:59;;;;;;;17.73;14.25;;;27.60;99.90;;;;;;5013219;28;20081;-87
2022/08/15 12:18:26;;;;;;;17.85;13.40;;;27.50;99.90;;;;;;4996191;28;20111;-87
2022/08/15 12:20:55;;;;;;;19.65;14.23;;;27.50;99.90;;;;;;4996388;28;20060;-86
2022/08/15 12:23:43;;;;;;;17.48;14.40;;;27.30;99.90;;;;;;4995596;28;20134;-86
2022/08/15 12:26:11;;;;;;;19.10;12.45;;;27.20;99.90;;;;;;5013226;28;20054;-87
2022/08/15 12:28:38;;;;;;;15.00;13.40;;;27.00;99.90;;;;;;4993397;28;20042;-84
2022/08/15 12:31:34;;;;;;;16.50;14.27;;;27.00;99.90;;;;;;4993455;28;20050;-84
2022/08/15 12:34:04;;;;;;;14.98;12.10;;;27.10;99.90;;;;;;4992071;28;20098;-83
2022/08/15 12:36:31;;;;;;;14.85;13.43;;;27.30;99.90;;;;;;4993338;28;20050;-85
2022/08/15 12:38:57;;;;;;;18.98;11.60;;;27.50;99.90;;;;;;4993121;28;20054;-84
2022/08/15 12:41:24;;;;;;;10.13;8.77;;;27.60;99.90;;;;;;4993409;28;20061;-83
2022/08/15 12:43:49;;;;;;;13.75;10.20;;;27.80;99.90;;;;;;4993019;28;20129;-86
2022/08/15 12:46:18;;;;;;;13.82;10.65;;;27.80;99.90;;;;;;5007046;28;20124;-83
2022/08/15 12:48:47;;;;;;;13.05;8.65;;;27.70;99.90;;;;;;5003735;28;20080;-83
2022/08/15 12:51:14;;;;;;;10.10;8.73;;;27.70;99.90;;;;;;4995355;28;20141;-86
2022/08/15 12:53:39;;;;;;;10.93;7.95;;;27.70;99.90;;;;;;5012937;28;20042;-85
2022/08/15 12:56:07;;;;;;;8.30;6.60;;;27.60;99.90;;;;;;5011846;28;20060;-90
2022/08/15 12:58:34;;;;;;;7.13;6.43;;;27.50;99.90;;;;;;5007408;28;20046;-85
2022/08/15 13:01:00;;;;;;;8.18;6.38;;;27.40;99.90;;;;;;5008805;28;20058;-84
2022/08/15 13:03:28;;;;;;;7.82;7.03;;;27.30;99.90;;;;;;4993088;28;20057;-84
2022/08/15 13:06:05;;;;;;;10.48;8.07;;;27.30;99.90;;;;;;5011223;28;20061;-90
2022/08/15 13:08:33;;;;;;;7.47;6.35;;;27.30;99.90;;;;;;5012903;28;20061;-86
2022/08/15 13:10:59;;;;;;;9.10;7.05;;;27.30;99.90;;;;;;5012584;28;20058;-86
2022/08/15 13:13:25;;;;;;;8.30;7.03;;;27.20;99.90;;;;;;5012885;28;20046;-83
2022/08/15 13:15:51;;;;;;;9.18;6.28;;;27.10;99.90;;;;;;5012130;28;20096;-85
2022/08/15 13:18:22;;;;;;;10.70;7.25;;;27.10;99.90;;;;;;5012206;28;20064;-83